Time;durP1;ratioP1;P1;durP2;ratioP2;P2;SDS_P1;SDS_P2;PMS_P1;PMS_P2;Temp;Humidity;BMP_temperature;BMP_pressure;BME280_temperature;BME280_humidity;BME280_pressure;Samples;Min_cycle;Max_cycle;Signal;HPM_P1;HPM_P2
2022/05/15 00:01:03;;;;;;;;;;;;;;;11.60;61.46;101966.59;6147211;23;20347;-70
2022/05/15 00:03:28;;;;;;;;;;;;;;;11.59;61.07;101967.47;6147598;23;19955;-70
2022/05/15 00:05:55;;;;;;;;;;;;;;;11.60;61.53;101966.59;6122486;23;19917;-70
2022/05/15 00:08:21;;;;;;;;;;;;;;;11.56;61.64;101965.69;6149423;23;19915;-70
2022/05/15 00:10:47;;;;;;;;;;;;;;;11.56;61.97;101963.06;6150495;23;19912;-70
2022/05/15 00:13:13;;;;;;;;;;;;;;;11.56;61.83;101957.81;6148694;23;19930;-70
2022/05/15 00:15:38;;;;;;;;;;;;;;;11.55;62.08;101960.44;6125086;23;19924;-71
2022/05/15 00:18:04;;;;;;;;;;;;;;;11.55;62.01;101965.69;6121997;23;19917;-70
2022/05/15 00:20:29;;;;;;;;;;;;;;;11.56;61.80;101967.47;6148992;23;19919;-69
2022/05/15 00:22:54;;;;;;;;;;;;;;;11.55;61.76;101963.97;6123035;23;20012;-70
2022/05/15 00:25:20;;;;;;;;;;;;;;;11.56;61.27;101962.22;6149643;23;19912;-70
2022/05/15 00:27:47;;;;;;;;;;;;;;;11.57;60.70;101959.59;6122924;23;19987;-72
2022/05/15 00:30:13;;;;;;;;;;;;;;;11.58;60.95;101955.22;6124386;23;19923;-70
2022/05/15 00:32:39;;;;;;;;;;;;;;;11.61;61.26;101957.84;6123422;23;19921;-70
2022/05/15 00:35:04;;;;;;;;;;;;;;;11.60;61.23;101959.59;6148275;23;19927;-70
2022/05/15 00:37:29;;;;;;;;;;;;;;;11.61;61.24;101955.22;6123399;23;19924;-69
2022/05/15 00:39:55;;;;;;;;;;;;;;;11.63;59.85;101947.34;6124159;23;19932;-70
2022/05/15 00:42:20;;;;;;;;;;;;;;;11.65;60.32;101959.63;6123958;23;19916;-70
2022/05/15 00:44:46;;;;;;;;;;;;;;;11.67;60.59;101955.22;6124679;23;19912;-70
2022/05/15 00:47:11;;;;;;;;;;;;;;;11.69;58.70;101955.22;6147754;23;20238;-69
2022/05/15 00:49:37;;;;;;;;;;;;;;;11.70;60.32;101949.97;6148598;23;19905;-69
2022/05/15 00:52:04;;;;;;;;;;;;;;;11.70;59.70;101955.22;6124095;23;19920;-70
2022/05/15 00:54:32;;;;;;;;;;;;;;;11.70;59.02;101949.13;6146736;23;19912;-70
2022/05/15 00:57:03;;;;;;;;;;;;;;;11.67;58.50;101949.13;6149033;23;19912;-70
2022/05/15 00:59:30;;;;;;;;;;;;;;;11.67;58.51;101949.97;6149667;23;20203;-69
2022/05/15 01:01:55;;;;;;;;;;;;;;;11.68;56.17;101946.50;6147409;23;19913;-71
2022/05/15 01:04:21;;;;;;;;;;;;;;;11.63;59.94;101944.72;6148873;23;19943;-69
2022/05/15 01:06:46;;;;;;;;;;;;;;;11.60;59.88;101942.97;6148811;23;19963;-69
2022/05/15 01:09:13;;;;;;;;;;;;;;;11.55;58.88;101945.59;6123473;23;19921;-69
2022/05/15 01:11:40;;;;;;;;;;;;;;;11.52;61.51;101944.69;6148717;23;19908;-69
2022/05/15 01:14:08;;;;;;;;;;;;;;;11.50;59.90;101949.06;6148402;23;20211;-69
2022/05/15 01:16:33;;;;;;;;;;;;;;;11.50;59.23;101944.69;6147120;23;19923;-69
2022/05/15 01:19:00;;;;;;;;;;;;;;;11.48;58.12;101945.56;6146810;23;20187;-69
2022/05/15 01:21:28;;;;;;;;;;;;;;;11.42;59.14;101946.41;6147487;23;19915;-69
2022/05/15 01:23:53;;;;;;;;;;;;;;;11.40;58.19;101945.56;6147984;23;20218;-71
2022/05/15 01:26:20;;;;;;;;;;;;;;;11.38;59.98;101952.56;6148460;23;19915;-70
2022/05/15 01:28:45;;;;;;;;;;;;;;;11.35;60.64;101948.16;6148348;23;19915;-69
2022/05/15 01:31:11;;;;;;;;;;;;;;;11.33;59.56;101949.03;6148020;23;20074;-70
2022/05/15 01:33:37;;;;;;;;;;;;;;;11.30;59.65;101954.28;6148155;23;19905;-70
2022/05/15 01:36:03;;;;;;;;;;;;;;;11.23;60.47;101946.41;6147436;23;20035;-70
2022/05/15 01:38:28;;;;;;;;;;;;;;;11.22;59.76;101951.59;6122987;23;20180;-69
2022/05/15 01:40:54;;;;;;;;;;;;;;;11.20;61.26;101948.13;6147601;23;19916;-69
2022/05/15 01:43:19;;;;;;;;;;;;;;;11.15;61.35;101950.72;6123797;23;19936;-69
2022/05/15 01:45:45;;;;;;;;;;;;;;;11.14;62.82;101937.59;6146709;23;19912;-70
2022/05/15 01:48:11;;;;;;;;;;;;;;;11.11;60.49;101941.09;6123642;23;19921;-70
2022/05/15 01:50:37;;;;;;;;;;;;;;;11.11;58.86;101940.22;6148662;23;20403;-69
2022/05/15 01:53:02;;;;;;;;;;;;;;;11.08;60.09;101941.94;6123452;23;19936;-70
2022/05/15 01:55:27;;;;;;;;;;;;;;;11.05;59.04;101934.06;6125250;23;19916;-70
2022/05/15 01:57:53;;;;;;;;;;;;;;;11.04;61.81;101936.69;6149349;23;19909;-70
2022/05/15 02:00:19;;;;;;;;;;;;;;;10.99;60.95;101935.78;6148126;23;20018;-70
2022/05/15 02:02:45;;;;;;;;;;;;;;;10.96;59.91;101939.28;6146691;23;19916;-69
2022/05/15 02:05:11;;;;;;;;;;;;;;;10.94;60.88;101948.88;6148489;23;19919;-70
2022/05/15 02:07:37;;;;;;;;;;;;;;;10.91;61.47;101946.25;6124491;23;19983;-70
2022/05/15 02:10:03;;;;;;;;;;;;;;;10.90;60.66;101945.38;6149545;23;19913;-70
2022/05/15 02:12:28;;;;;;;;;;;;;;;10.88;61.48;101941.00;6125061;23;19913;-69
2022/05/15 02:14:54;;;;;;;;;;;;;;;10.85;60.36;101930.50;6124756;23;19918;-70
2022/05/15 02:17:21;;;;;;;;;;;;;;;10.82;61.01;101928.72;6123002;23;19920;-70
2022/05/15 02:19:47;;;;;;;;;;;;;;;10.81;61.22;101928.72;6150026;23;19912;-69
2022/05/15 02:22:12;;;;;;;;;;;;;;;10.79;62.38;101927.81;6123132;23;20054;-69
2022/05/15 02:24:38;;;;;;;;;;;;;;;10.77;61.67;101926.97;6123515;23;19932;-70
2022/05/15 02:27:03;;;;;;;;;;;;;;;10.75;61.83;101924.34;6124535;23;19924;-70
2022/05/15 02:29:29;;;;;;;;;;;;;;;10.74;62.46;101927.81;6148937;23;19912;-77
2022/05/15 02:31:54;;;;;;;;;;;;;;;10.72;62.69;101940.06;6148096;23;20280;-76
2022/05/15 02:34:19;;;;;;;;;;;;;;;10.69;61.08;101932.19;6124611;23;19912;-76
2022/05/15 02:36:45;;;;;;;;;;;;;;;10.65;62.32;101941.75;6124377;23;19959;-76
2022/05/15 02:39:10;;;;;;;;;;;;;;;10.63;59.75;101940.88;6148117;23;19913;-76
2022/05/15 02:41:35;;;;;;;;;;;;;;;10.58;60.80;101942.59;6124448;23;20342;-76
2022/05/15 02:44:01;;;;;;;;;;;;;;;10.58;61.77;101942.59;6124275;23;19924;-76
2022/05/15 02:46:26;;;;;;;;;;;;;;;10.57;62.25;101936.47;6148271;23;19913;-76
2022/05/15 02:51:36;;;;;;;;;;;;;;;10.50;63.16;101939.03;6150824;23;20166;-77
2022/05/15 02:54:01;;;;;;;;;;;;;;;10.46;63.65;101937.25;6147797;23;19948;-76
2022/05/15 02:56:28;;;;;;;;;;;;;;;10.42;64.08;101925.91;6146524;23;19991;-78
2022/05/15 02:58:53;;;;;;;;;;;;;;;10.38;64.56;101939.84;6146107;23;19919;-77
2022/05/15 03:01:19;;;;;;;;;;;;;;;10.35;64.51;101932.81;6121657;23;19920;-78
2022/05/15 03:03:45;;;;;;;;;;;;;;;10.32;64.75;101930.16;6147221;23;19963;-77
2022/05/15 03:06:10;;;;;;;;;;;;;;;10.29;64.55;101916.19;6144415;23;19919;-77
2022/05/15 03:08:37;;;;;;;;;;;;;;;10.25;64.76;101928.38;6117251;23;19917;-76
2022/05/15 03:11:03;;;;;;;;;;;;;;;10.21;65.28;101921.34;6142554;23;19912;-77
2022/05/15 03:13:28;;;;;;;;;;;;;;;10.15;65.41;101916.06;6118148;23;19916;-77
2022/05/15 03:15:53;;;;;;;;;;;;;;;10.12;65.42;101918.69;6142954;23;19948;-77
2022/05/15 03:18:19;;;;;;;;;;;;;;;10.08;65.59;101914.28;6118937;23;19916;-77
2022/05/15 03:20:46;;;;;;;;;;;;;;;10.03;65.58;101917.72;6143710;23;19920;-77
2022/05/15 03:23:13;;;;;;;;;;;;;;;10.02;64.42;101918.59;6142981;23;20019;-76
2022/05/15 03:25:39;;;;;;;;;;;;;;;10.00;64.50;101917.72;6119320;23;20322;-77
2022/05/15 03:28:09;;;;;;;;;;;;;;;10.00;62.55;101915.09;6118719;23;20015;-76
2022/05/15 03:30:37;;;;;;;;;;;;;;;9.97;62.48;101917.69;6143086;23;19936;-76
2022/05/15 03:33:03;;;;;;;;;;;;;;;9.95;64.27;101911.56;6142003;23;19936;-76
2022/05/15 03:35:28;;;;;;;;;;;;;;;9.94;65.27;101915.06;6117291;23;19924;-77
2022/05/15 03:37:53;;;;;;;;;;;;;;;9.93;65.69;101908.06;6117534;23;19921;-76
2022/05/15 03:40:19;;;;;;;;;;;;;;;9.91;66.19;101909.75;6142156;23;19919;-76
2022/05/15 03:42:44;;;;;;;;;;;;;;;9.91;65.73;101912.38;6143227;23;20051;-75
2022/05/15 03:45:09;;;;;;;;;;;;;;;9.89;64.98;101908.88;6118151;23;20311;-76
2022/05/15 03:47:36;;;;;;;;;;;;;;;9.89;63.36;101904.53;6117247;23;20066;-76
2022/05/15 03:50:03;;;;;;;;;;;;;;;9.89;62.73;101906.28;6117991;23;19963;-76
2022/05/15 03:52:28;;;;;;;;;;;;;;;9.91;63.94;101907.16;6142720;23;19994;-76
2022/05/15 03:54:54;;;;;;;;;;;;;;;9.93;63.43;101897.59;6142105;23;19917;-76
2022/05/15 03:57:19;;;;;;;;;;;;;;;9.95;65.07;101902.81;6142637;23;19912;-78
2022/05/15 03:59:45;;;;;;;;;;;;;;;9.94;65.94;101906.31;6118207;23;20640;-76
2022/05/15 04:02:11;;;;;;;;;;;;;;;9.96;66.46;101913.31;6142336;23;19922;-76
2022/05/15 04:04:37;;;;;;;;;;;;;;;9.97;65.85;101912.47;6143191;23;20023;-77
2022/05/15 04:07:02;;;;;;;;;;;;;;;10.00;66.55;101907.25;6118157;23;19988;-75
2022/05/15 04:09:29;;;;;;;;;;;;;;;10.02;66.13;101905.50;6142127;23;20339;-76
2022/05/15 04:11:54;;;;;;;;;;;;;;;10.06;66.14;101912.50;6118441;23;19995;-77
2022/05/15 04:14:19;;;;;;;;;;;;;;;10.10;65.95;101907.28;6143290;23;19936;-76
2022/05/15 04:16:45;;;;;;;;;;;;;;;10.15;66.45;101902.97;6120386;23;19920;-77
2022/05/15 04:19:11;;;;;;;;;;;;;;;10.22;66.88;101912.63;6122440;23;20044;-76
2022/05/15 04:21:40;;;;;;;;;;;;;;;10.30;65.74;101912.66;6118410;23;19921;-76
2022/05/15 04:24:06;;;;;;;;;;;;;;;10.38;64.41;101917.13;6118489;23;19999;-77
2022/05/15 04:26:33;;;;;;;;;;;;;;;10.50;65.44;101921.59;6117613;23;19917;-76
2022/05/15 04:28:58;;;;;;;;;;;;;;;10.64;63.20;101926.03;6142980;23;20291;-77
2022/05/15 04:31:23;;;;;;;;;;;;;;;10.83;63.53;101914.75;6118092;23;19917;-77
2022/05/15 04:33:49;;;;;;;;;;;;;;;11.08;64.71;101922.72;6117863;23;20013;-77
2022/05/15 04:36:14;;;;;;;;;;;;;;;11.29;61.51;101916.63;6116965;23;19991;-75
2022/05/15 04:38:42;;;;;;;;;;;;;;;11.52;62.52;101931.56;6117497;23;19982;-76
2022/05/15 04:41:07;;;;;;;;;;;;;;;11.77;63.25;101919.34;6122603;23;19913;-77
2022/05/15 04:43:33;;;;;;;;;;;;;;;12.04;62.76;101921.16;6118763;23;19920;-77
2022/05/15 04:45:58;;;;;;;;;;;;;;;12.31;62.99;101921.97;6116624;23;19916;-76
2022/05/15 04:48:24;;;;;;;;;;;;;;;12.57;59.45;101918.41;6117345;23;19916;-76
2022/05/15 04:50:49;;;;;;;;;;;;;;;12.86;61.03;101915.69;6118302;23;19928;-76
2022/05/15 04:53:14;;;;;;;;;;;;;;;13.18;60.19;101918.16;6142899;23;19927;-79
2022/05/15 04:55:40;;;;;;;;;;;;;;;13.51;61.06;101913.59;6120677;23;19920;-78
2022/05/15 04:58:05;;;;;;;;;;;;;;;13.84;59.19;101918.66;6118558;23;20244;-76
2022/05/15 05:00:30;;;;;;;;;;;;;;;14.18;59.38;101921.00;6144341;23;19913;-75
2022/05/15 05:02:56;;;;;;;;;;;;;;;14.47;57.33;101917.19;6120829;23;19963;-77
2022/05/15 05:05:21;;;;;;;;;;;;;;;14.69;56.75;101913.44;6119395;23;19967;-77
2022/05/15 05:07:47;;;;;;;;;;;;;;;14.92;56.22;101914.06;6123253;23;20023;-76
2022/05/15 05:10:13;;;;;;;;;;;;;;;15.22;57.35;101915.41;6120867;23;19920;-74
2022/05/15 05:12:39;;;;;;;;;;;;;;;15.51;55.55;101914.09;6143001;23;19912;-77
2022/05/15 05:15:05;;;;;;;;;;;;;;;15.83;56.22;101926.84;6119393;23;19916;-76
2022/05/15 05:17:30;;;;;;;;;;;;;;;16.16;54.77;101927.19;6119988;23;19917;-76
2022/05/15 05:19:56;;;;;;;;;;;;;;;16.43;53.73;101924.91;6119035;23;19913;-75
2022/05/15 05:22:23;;;;;;;;;;;;;;;16.76;54.12;101919.84;6117286;23;19928;-69
2022/05/15 05:24:48;;;;;;;;;;;;;;;17.05;52.79;101923.69;6119376;23;20227;-70
2022/05/15 05:27:14;;;;;;;;;;;;;;;17.25;53.44;101921.47;6118333;23;20528;-77
2022/05/15 05:29:39;;;;;;;;;;;;;;;17.52;53.16;101932.34;6119168;23;20642;-75
2022/05/15 05:32:05;;;;;;;;;;;;;;;17.99;52.90;101935.66;6143035;23;20007;-78
2022/05/15 05:34:31;;;;;;;;;;;;;;;18.63;51.32;101937.50;6118984;23;19934;-78
2022/05/15 05:36:56;;;;;;;;;;;;;;;19.18;51.27;101931.53;6143305;23;19936;-77
2022/05/15 05:39:21;;;;;;;;;;;;;;;19.60;50.30;101928.44;6119126;23;19941;-76
2022/05/15 05:41:47;;;;;;;;;;;;;;;19.96;49.71;101932.63;6120794;23;19992;-78
2022/05/15 05:44:14;;;;;;;;;;;;;;;20.28;49.30;101926.16;6143621;23;19915;-76
2022/05/15 05:46:39;;;;;;;;;;;;;;;20.75;48.22;101914.75;6142941;23;19920;-77
2022/05/15 05:49:04;;;;;;;;;;;;;;;21.04;48.05;101920.78;6119645;23;20050;-78
2022/05/15 05:51:30;;;;;;;;;;;;;;;21.46;47.60;101920.00;6143812;23;20042;-77
2022/05/15 05:53:56;;;;;;;;;;;;;;;21.82;46.38;101922.09;6118917;23;19909;-77
2022/05/15 05:56:21;;;;;;;;;;;;;;;21.98;46.15;101925.88;6144138;23;20290;-76
2022/05/15 05:58:47;;;;;;;;;;;;;;;22.34;45.50;101929.72;6143360;23;19940;-77
2022/05/15 06:01:13;;;;;;;;;;;;;;;22.75;45.18;101931.47;6118533;23;19912;-78
2022/05/15 06:06:23;;;;;;;;;;;;;;;23.86;43.41;101932.41;6143298;23;19938;-76
2022/05/15 06:08:48;;;;;;;;;;;;;;;24.45;43.01;101923.16;6119484;23;19944;-78
2022/05/15 06:11:14;;;;;;;;;;;;;;;24.90;42.64;101922.50;6119726;23;20248;-75
2022/05/15 06:13:39;;;;;;;;;;;;;;;25.21;41.97;101926.16;6120147;23;20315;-76
2022/05/15 06:16:08;;;;;;;;;;;;;;;25.63;41.29;101931.88;6117916;23;19920;-77
2022/05/15 06:18:34;;;;;;;;;;;;;;;25.97;40.04;101926.31;6144310;23;19917;-76
2022/05/15 06:21:00;;;;;;;;;;;;;;;26.38;40.69;101929.19;6142210;23;20224;-76
2022/05/15 06:23:25;;;;;;;;;;;;;;;26.85;39.28;101924.53;6118492;23;19924;-76
2022/05/15 06:25:54;;;;;;;;;;;;;;;27.33;38.73;101921.44;6120454;23;20381;-76
2022/05/15 06:28:22;;;;;;;;;;;;;;;27.94;38.66;101929.97;6124632;23;19913;-76
2022/05/15 06:30:48;;;;;;;;;;;;;;;28.15;37.22;101927.63;6146937;23;19908;-78
2022/05/15 06:33:13;;;;;;;;;;;;;;;28.17;36.54;101924.81;6147129;23;19912;-75
2022/05/15 06:35:38;;;;;;;;;;;;;;;28.11;38.10;101927.97;6122772;23;19921;-75
2022/05/15 06:38:05;;;;;;;;;;;;;;;28.26;36.31;101928.72;6122423;23;19921;-78
2022/05/15 06:40:31;;;;;;;;;;;;;;;27.95;37.11;101923.59;6147444;23;20339;-76
2022/05/15 06:42:59;;;;;;;;;;;;;;;27.39;37.38;101925.59;6147485;23;19991;-76
2022/05/15 06:45:25;;;;;;;;;;;;;;;26.73;38.18;101925.31;6148368;23;19952;-71
2022/05/15 06:47:51;;;;;;;;;;;;;;;26.27;40.00;101932.53;6146687;23;19913;-71
2022/05/15 06:50:18;;;;;;;;;;;;;;;26.10;38.39;101935.38;6147839;23;19916;-71
2022/05/15 06:52:43;;;;;;;;;;;;;;;26.16;41.22;101940.41;6145734;23;19912;-70
2022/05/15 06:55:13;;;;;;;;;;;;;;;25.76;40.29;101922.13;6123302;23;19917;-71
2022/05/15 06:57:42;;;;;;;;;;;;;;;25.52;40.44;101927.09;6147384;23;19991;-71
2022/05/15 07:00:12;;;;;;;;;;;;;;;25.90;40.86;101929.38;6148516;23;19985;-70
2022/05/15 07:02:38;;;;;;;;;;;;;;;26.87;38.94;101919.06;6146268;23;19964;-71
2022/05/15 07:05:04;;;;;;;;;;;;;;;27.83;37.60;101924.44;6147929;23;19916;-71
2022/05/15 07:07:30;;;;;;;;;;;;;;;28.60;36.88;101912.84;6146359;23;19908;-70
2022/05/15 07:09:55;;;;;;;;;;;;;;;29.16;35.48;101920.53;6123754;23;19943;-72
2022/05/15 07:12:21;;;;;;;;;;;;;;;29.77;34.79;101920.47;6123422;23;19917;-70
2022/05/15 07:14:46;;;;;;;;;;;;;;;29.56;35.50;101920.28;6122741;23;19917;-71
2022/05/15 07:17:12;;;;;;;;;;;;;;;28.68;36.47;101916.75;6122223;23;19908;-71
2022/05/15 07:19:37;;;;;;;;;;;;;;;27.95;36.52;101923.59;6147569;23;19912;-73
2022/05/15 07:22:03;;;;;;;;;;;;;;;27.27;38.29;101925.41;6146455;23;19917;-73
2022/05/15 07:24:28;;;;;;;;;;;;;;;26.69;38.18;101924.63;6144975;23;19909;-73
2022/05/15 07:26:54;;;;;;;;;;;;;;;26.54;37.37;101925.56;6121373;23;19967;-72
2022/05/15 07:29:20;;;;;;;;;;;;;;;26.69;36.98;101931.81;6148107;23;20273;-72
2022/05/15 07:31:47;;;;;;;;;;;;;;;26.15;36.36;101930.59;6145056;23;19967;-72
2022/05/15 07:34:12;;;;;;;;;;;;;;;25.93;38.50;101930.97;6147697;23;19921;-73
2022/05/15 07:36:38;;;;;;;;;;;;;;;26.07;37.86;101935.56;6146794;23;19998;-74
2022/05/15 07:39:06;;;;;;;;;;;;;;;26.03;36.66;101934.03;6121876;23;20253;-72
2022/05/15 07:41:31;;;;;;;;;;;;;;;26.09;37.03;101936.38;6147580;23;20017;-73
2022/05/15 07:43:57;;;;;;;;;;;;;;;25.82;37.26;101930.78;6147148;23;19913;-71
2022/05/15 07:46:22;;;;;;;;;;;;;;;25.47;35.82;101933.69;6145483;23;19905;-72
2022/05/15 07:48:48;;;;;;;;;;;;;;;24.96;38.25;101932.03;6123424;23;19943;-73
2022/05/15 07:51:13;;;;;;;;;;;;;;;24.73;38.87;101922.56;6123222;23;19916;-72
2022/05/15 07:53:39;;;;;;;;;;;;;;;25.39;36.81;101924.25;6147847;23;20304;-74
2022/05/15 07:56:09;;;;;;;;;;;;;;;26.45;37.11;101918.94;6147647;23;19913;-73
2022/05/15 07:58:35;;;;;;;;;;;;;;;27.48;35.16;101920.47;6123077;23;19915;-74
2022/05/15 08:01:04;;;;;;;;;;;;;;;27.26;34.52;101912.03;6122372;23;19916;-73
2022/05/15 08:03:33;;;;;;;;;;;;;;;26.64;35.66;101921.34;6123156;23;19917;-74
2022/05/15 08:08:43;;;;;;;;;;;;;;;26.03;35.88;101923.28;6146523;23;19983;-74
2022/05/15 08:11:08;;;;;;;;;;;;;;;26.78;34.52;101923.19;6123142;23;19913;-75
2022/05/15 08:13:37;;;;;;;;;;;;;;;27.57;34.24;101916.28;6147701;23;19975;-75
2022/05/15 08:16:02;;;;;;;;;;;;;;;28.73;33.03;101913.72;6121628;23;19991;-77
2022/05/15 08:23:57;;;;;;;;;;;;;;;31.92;28.67;101911.34;6147565;23;19932;-74
2022/05/15 08:26:23;;;;;;;;;;;;;;;31.68;28.68;101904.34;6147981;23;19979;-77
2022/05/15 08:28:48;;;;;;;;;;;;;;;30.91;29.67;101895.31;6146502;23;19940;-77
2022/05/15 08:31:17;;;;;;;;;;;;;;;29.61;30.00;101893.78;6138206;23;19920;-72
2022/05/15 08:33:42;;;;;;;;;;;;;;;28.61;31.75;101888.50;6147705;23;19913;-73
2022/05/15 08:36:10;;;;;;;;;;;;;;;27.48;31.89;101887.28;6123089;23;19924;-72
2022/05/15 08:38:37;;;;;;;;;;;;;;;26.90;33.41;101891.97;6147328;23;19920;-73
2022/05/15 08:41:04;;;;;;;;;;;;;;;26.39;34.69;101887.94;6122584;23;19917;-73
2022/05/15 08:43:38;;;;;;;;;;;;;;;25.85;34.95;101880.44;6148781;23;19917;-74
2022/05/15 08:46:05;;;;;;;;;;;;;;;25.35;33.98;101874.41;6147845;23;20318;-73
2022/05/15 08:48:35;;;;;;;;;;;;;;;25.30;34.02;101881.84;6149329;23;20305;-74
2022/05/15 08:51:02;;;;;;;;;;;;;;;25.00;35.93;101868.38;6148988;23;19909;-74
2022/05/15 08:53:35;;;;;;;;;;;;;;;25.33;35.96;101872.78;6147242;23;19905;-75
2022/05/15 08:56:06;;;;;;;;;;;;;;;25.74;35.41;101864.97;6147991;23;19920;-73
2022/05/15 08:58:40;;;;;;;;;;;;;;;26.18;34.89;101867.78;6149803;23;19908;-72
2022/05/15 09:01:09;;;;;;;;;;;;;;;26.45;32.69;101870.56;6149762;23;19975;-74
2022/05/15 09:03:35;;;;;;;;;;;;;;;26.57;32.69;101859.03;6149023;23;19916;-73
2022/05/15 09:06:09;;;;;;;;;;;;;;;27.27;30.87;101858.13;6123514;23;19995;-72
2022/05/15 09:09:10;;;;;;;;;;;;;;;27.72;30.14;101859.69;6148824;23;19959;-77
2022/05/15 09:11:57;;;;;;;;;;;;;;;27.66;30.08;101851.03;6035287;23;19917;-75
2022/05/15 09:14:38;;;;;;;;;;;;;;;27.74;29.83;101864.00;6139974;23;19985;-73
2022/05/15 09:17:04;;;;;;;;;;;;;;;28.04;29.74;101862.84;6148477;23;19916;-73
2022/05/15 09:19:29;;;;;;;;;;;;;;;28.31;29.49;101869.97;6149226;23;19916;-75
2022/05/15 09:21:59;;;;;;;;;;;;;;;28.21;29.47;101863.50;6121146;23;19970;-75
2022/05/15 09:24:32;;;;;;;;;;;;;;;28.10;28.86;101861.56;6148041;23;19912;-75
2022/05/15 09:27:12;;;;;;;;;;;;;;;27.73;28.64;101856.00;6148287;23;19978;-73
2022/05/15 09:29:37;;;;;;;;;;;;;;;27.40;30.09;101857.34;6145918;23;20222;-74
2022/05/15 09:32:05;;;;;;;;;;;;;;;27.26;29.69;101864.47;6144031;23;19923;-72
2022/05/15 09:34:36;;;;;;;;;;;;;;;27.75;29.82;101863.00;6145963;23;20227;-72
2022/05/15 09:39:46;;;;;;;;;;;;;;;30.18;26.48;101859.66;6145572;23;19983;-72
2022/05/15 09:45:14;;;;;;;;;;;;;;;28.15;27.87;101845.94;6149856;23;19955;-75
2022/05/15 09:47:44;;;;;;;;;;;;;;;27.15;28.97;101850.84;6144928;23;20575;-75
2022/05/15 09:50:29;;;;;;;;;;;;;;;26.49;30.75;101847.91;6146559;23;19913;-74
2022/05/15 09:52:59;;;;;;;;;;;;;;;26.40;30.04;101843.13;6144125;23;19912;-74
2022/05/15 10:01:35;;;;;;;;;;;;;;;29.30;26.37;101844.81;6151487;23;20307;-75
2022/05/15 10:04:02;;;;;;;;;;;;;;;29.28;25.47;101833.28;6149598;23;19920;-74
2022/05/15 10:06:29;;;;;;;;;;;;;;;28.69;25.71;101831.31;6148171;23;19913;-75
2022/05/15 10:09:12;;;;;;;;;;;;;;;28.14;26.80;101830.75;6149376;23;19909;-74
2022/05/15 10:11:41;;;;;;;;;;;;;;;27.47;27.60;101832.59;6149069;23;19963;-78
2022/05/15 10:14:10;;;;;;;;;;;;;;;26.91;28.53;101827.31;6149485;23;19950;-76
2022/05/15 10:16:43;;;;;;;;;;;;;;;26.37;29.55;101830.72;6147838;23;19983;-73
2022/05/15 10:19:14;;;;;;;;;;;;;;;25.86;29.97;101822.22;6149048;23;19927;-75
2022/05/15 10:21:43;;;;;;;;;;;;;;;25.65;30.12;101821.72;6149327;23;19917;-80
2022/05/15 10:24:13;;;;;;;;;;;;;;;25.83;28.59;101844.78;6148005;23;19913;-76
2022/05/15 10:27:10;;;;;;;;;;;;;;;26.18;28.55;101830.19;6146839;23;19912;-76
2022/05/15 10:29:40;;;;;;;;;;;;;;;26.01;28.93;101824.00;6125813;23;20306;-76
2022/05/15 10:32:14;;;;;;;;;;;;;;;25.69;29.57;101824.13;6148668;23;19915;-77
2022/05/15 10:34:41;;;;;;;;;;;;;;;25.54;29.16;101820.56;6148481;23;19985;-76
2022/05/15 10:37:25;;;;;;;;;;;;;;;25.48;29.67;101815.53;6125066;23;19982;-75
2022/05/15 10:40:12;;;;;;;;;;;;;;;25.57;29.04;101814.13;6147751;23;19932;-74
2022/05/15 10:42:40;;;;;;;;;;;;;;;25.37;29.14;101804.56;6145209;23;20031;-74
2022/05/15 10:45:30;;;;;;;;;;;;;;;25.15;30.63;101805.81;6147127;23;19953;-73
2022/05/15 10:48:08;;;;;;;;;;;;;;;25.23;30.14;101811.59;6147719;23;20285;-74
2022/05/15 10:50:48;;;;;;;;;;;;;;;25.25;30.61;101803.44;6148124;23;19943;-74
2022/05/15 10:59:05;;;;;;;;;;;;;;;27.70;27.08;101794.28;6150230;23;20171;-73
2022/05/15 11:01:36;;;;;;;;;;;;;;;27.54;27.25;101779.22;6149364;23;20251;-73
2022/05/15 11:04:08;;;;;;;;;;;;;;;26.79;28.21;101779.72;6147497;23;19916;-73
2022/05/15 11:06:36;;;;;;;;;;;;;;;26.32;27.76;101779.13;6147267;23;19935;-76
2022/05/15 11:09:04;;;;;;;;;;;;;;;26.41;28.79;101783.03;6147859;23;19912;-75
2022/05/15 11:11:33;;;;;;;;;;;;;;;27.05;26.85;101782.50;6148369;23;19923;-75
2022/05/15 11:14:17;;;;;;;;;;;;;;;27.37;27.17;101782.19;6148469;23;20043;-75
2022/05/15 11:16:42;;;;;;;;;;;;;;;27.39;26.43;101777.56;6146476;23;19913;-73
2022/05/15 11:19:17;;;;;;;;;;;;;;;27.51;27.18;101774.00;6147607;23;19921;-73
2022/05/15 11:21:50;;;;;;;;;;;;;;;27.21;27.57;101777.81;6147257;23;19999;-73
2022/05/15 11:24:31;;;;;;;;;;;;;;;26.69;28.43;101773.22;6145966;23;20296;-72
2022/05/15 11:27:00;;;;;;;;;;;;;;;26.36;28.64;101771.72;6145138;23;19912;-73
2022/05/15 11:29:26;;;;;;;;;;;;;;;26.23;29.66;101764.47;6146603;23;19987;-72
2022/05/15 11:31:53;;;;;;;;;;;;;;;26.19;29.69;101749.50;6122144;23;20283;-75
2022/05/15 11:34:41;;;;;;;;;;;;;;;26.19;29.54;101757.56;6149106;23;19916;-73
2022/05/15 11:37:25;;;;;;;;;;;;;;;26.03;29.30;101746.91;6146990;23;19920;-73
2022/05/15 11:39:59;;;;;;;;;;;;;;;25.88;28.95;101743.31;6146682;23;19919;-73
2022/05/15 11:42:27;;;;;;;;;;;;;;;25.84;29.29;101743.63;6122999;23;19920;-73
2022/05/15 11:44:52;;;;;;;;;;;;;;;25.74;29.82;101735.25;6146996;23;19908;-75
2022/05/15 11:47:26;;;;;;;;;;;;;;;25.62;28.96;101734.19;6146971;23;20242;-73
2022/05/15 11:50:10;;;;;;;;;;;;;;;25.51;29.68;101726.78;6148593;23;20319;-74
2022/05/15 11:52:37;;;;;;;;;;;;;;;25.58;29.56;101724.59;6146842;23;19936;-73
2022/05/15 11:55:38;;;;;;;;;;;;;;;25.61;29.57;101727.09;6146807;23;19908;-75
2022/05/15 11:58:18;;;;;;;;;;;;;;;25.40;30.31;101726.59;6034127;23;19949;-77
2022/05/15 12:00:57;;;;;;;;;;;;;;;25.38;30.40;101725.81;6133435;23;19912;-75
2022/05/15 12:03:28;;;;;;;;;;;;;;;25.31;29.95;101724.44;6149689;23;20379;-74
2022/05/15 12:06:04;;;;;;;;;;;;;;;25.24;27.03;101708.72;6149958;23;19991;-74
2022/05/15 12:08:34;;;;;;;;;;;;;;;25.26;28.82;101714.00;6150012;23;19913;-74
2022/05/15 12:11:12;;;;;;;;;;;;;;;25.29;29.82;101707.59;6150226;23;19930;-73
2022/05/15 12:13:40;;;;;;;;;;;;;;;25.37;30.08;101716.03;6150812;23;20020;-74
2022/05/15 12:16:25;;;;;;;;;;;;;;;25.50;29.81;101703.63;6150460;23;19940;-72
2022/05/15 12:19:17;;;;;;;;;;;;;;;25.62;29.52;101714.56;6148574;23;19909;-75
2022/05/15 12:21:48;;;;;;;;;;;;;;;25.64;30.09;101708.13;6141669;23;19916;-74
2022/05/15 12:24:28;;;;;;;;;;;;;;;25.71;29.32;101703.25;6149800;23;19908;-74
2022/05/15 12:27:12;;;;;;;;;;;;;;;25.74;29.38;101709.28;6127804;23;19917;-73
2022/05/15 12:29:44;;;;;;;;;;;;;;;25.68;28.56;101723.09;6148625;23;19991;-75
2022/05/15 12:32:14;;;;;;;;;;;;;;;25.51;29.32;101708.00;6149480;23;19912;-74
2022/05/15 12:34:46;;;;;;;;;;;;;;;25.46;29.62;101698.53;6148314;23;20261;-75
2022/05/15 12:37:12;;;;;;;;;;;;;;;25.42;29.75;101692.50;6147684;23;19940;-71
2022/05/15 12:39:40;;;;;;;;;;;;;;;25.55;29.95;101671.97;6148641;23;19916;-75
2022/05/15 12:42:18;;;;;;;;;;;;;;;25.64;28.78;101692.00;6149414;23;19912;-75
2022/05/15 12:44:44;;;;;;;;;;;;;;;25.58;28.09;101681.69;6149766;23;19913;-73
2022/05/15 12:47:19;;;;;;;;;;;;;;;25.56;29.49;101664.81;6125022;23;19940;-74
2022/05/15 12:49:46;;;;;;;;;;;;;;;25.63;29.31;101662.59;6149587;23;19982;-71
2022/05/15 12:55:26;;;;;;;;;;;;;;;25.88;29.50;101661.91;6150036;23;19916;-73
2022/05/15 12:57:53;;;;;;;;;;;;;;;25.87;29.70;101665.56;6148695;23;19984;-73
2022/05/15 13:00:20;;;;;;;;;;;;;;;25.94;28.86;101666.88;6149611;23;19912;-76
2022/05/15 13:02:47;;;;;;;;;;;;;;;25.88;29.51;101659.25;6148741;23;19913;-73
2022/05/15 13:05:24;;;;;;;;;;;;;;;25.88;28.67;101672.66;6149457;23;19991;-74
2022/05/15 13:07:54;;;;;;;;;;;;;;;25.85;29.06;101656.75;6147802;23;20052;-73
2022/05/15 13:10:20;;;;;;;;;;;;;;;26.00;28.73;101657.59;6148956;23;19912;-72
2022/05/15 13:12:56;;;;;;;;;;;;;;;26.15;26.25;101645.88;6150977;23;19908;-72
2022/05/15 13:15:26;;;;;;;;;;;;;;;26.10;28.12;101648.00;6149320;23;19999;-75
2022/05/15 13:17:52;;;;;;;;;;;;;;;26.12;25.37;101648.78;6148552;23;19915;-76